Time;durP1;ratioP1;P1;durP2;ratioP2;P2;SDS_P1;SDS_P2;PMS_P1;PMS_P2;Temp;Humidity;BMP_temperature;BMP_pressure;BME280_temperature;BME280_humidity;BME280_pressure;Samples;Min_cycle;Max_cycle;Signal;HPM_P1;HPM_P2
2023/01/17 00:02:04;;;;;;;0.90;0.80;;;5.20;93.10;;;;;;5026326;28;20052;-66
2023/01/17 00:10:06;;;;;;;2.92;0.90;;;5.20;93.20;;;;;;5028667;28;20047;-66
2023/01/17 00:12:32;;;;;;;1.40;1.00;;;5.30;93.10;;;;;;5031607;28;20025;-67
2023/01/17 00:14:58;;;;;;;3.35;0.93;;;5.20;93.10;;;;;;5033426;28;20052;-66
2023/01/17 00:17:27;;;;;;;2.55;0.90;;;5.20;93.10;;;;;;5031596;28;20026;-68
2023/01/17 01:34:34;;;;;;;2.40;0.82;;;4.40;93.00;;;;;;5030540;28;20103;-65
2023/01/17 01:36:59;;;;;;;0.50;0.50;;;4.40;93.00;;;;;;5022886;28;20431;-67
2023/01/17 01:39:25;;;;;;;0.75;0.70;;;4.30;93.00;;;;;;5029442;28;20037;-67
2023/01/17 01:41:50;;;;;;;2.25;1.02;;;4.20;92.90;;;;;;5030140;28;20029;-66
2023/01/17 01:44:43;;;;;;;0.60;0.60;;;4.20;93.10;;;;;;5029133;28;20155;-68
2023/01/17 01:47:12;;;;;;;0.88;0.60;;;4.10;92.90;;;;;;5030106;28;20148;-67
2023/01/17 01:49:38;;;;;;;0.65;0.65;;;3.90;92.90;;;;;;5030003;28;20017;-68
2023/01/17 01:52:06;;;;;;;1.00;0.80;;;3.90;93.10;;;;;;5028367;28;20568;-67
2023/01/17 01:55:13;;;;;;;1.80;0.60;;;3.80;93.20;;;;;;5029325;28;20025;-66
2023/01/17 01:57:42;;;;;;;0.60;0.60;;;3.90;93.60;;;;;;4986578;28;20027;-67
2023/01/17 02:00:21;;;;;;;0.47;0.47;;;3.90;93.10;;;;;;5019449;28;20041;-66
2023/01/17 02:02:48;;;;;;;0.60;0.60;;;3.90;93.20;;;;;;5028067;28;20040;-68
2023/01/17 02:05:19;;;;;;;0.63;0.63;;;3.90;93.10;;;;;;5027928;28;20030;-66
2023/01/17 02:08:06;;;;;;;0.70;0.70;;;3.90;93.10;;;;;;5025022;28;20443;-66
2023/01/17 02:10:34;;;;;;;0.73;0.73;;;3.90;93.10;;;;;;5025232;28;20036;-66
2023/01/17 02:13:01;;;;;;;0.90;0.70;;;3.90;92.90;;;;;;5028547;28;20029;-67
2023/01/17 02:15:37;;;;;;;0.63;0.63;;;3.90;93.00;;;;;;5028715;28;20104;-66
2023/01/17 02:18:18;;;;;;;0.70;0.70;;;3.90;93.00;;;;;;5025162;28;20029;-67
2023/01/17 02:21:06;;;;;;;0.90;0.90;;;3.90;93.10;;;;;;5026123;28;20049;-67
2023/01/17 02:24:04;;;;;;;1.05;0.90;;;3.80;93.00;;;;;;5027315;28;20025;-68
2023/01/17 02:26:55;;;;;;;0.93;0.80;;;3.80;92.90;;;;;;5021034;28;20021;-67
2023/01/17 02:29:45;;;;;;;0.68;0.65;;;3.70;93.00;;;;;;5041766;28;20033;-67
2023/01/17 02:32:20;;;;;;;1.05;0.90;;;3.70;93.10;;;;;;5023545;28;20105;-66
2023/01/17 02:34:50;;;;;;;0.90;0.90;;;3.70;93.10;;;;;;5021099;28;20503;-67
2023/01/17 02:37:21;;;;;;;1.20;1.10;;;3.70;93.10;;;;;;5029757;28;20036;-66
2023/01/17 02:40:10;;;;;;;0.98;0.90;;;3.60;93.10;;;;;;5021827;28;20731;-67
2023/01/17 02:42:41;;;;;;;3.17;1.40;;;3.60;93.40;;;;;;5022033;28;20033;-66
2023/01/17 02:45:07;;;;;;;1.10;1.00;;;3.60;93.20;;;;;;5026844;28;20391;-68
2023/01/17 02:47:32;;;;;;;1.50;0.90;;;3.60;93.20;;;;;;5024565;28;20034;-67
2023/01/17 02:50:20;;;;;;;0.90;0.85;;;3.60;93.20;;;;;;5022331;28;20029;-67
2023/01/17 02:52:58;;;;;;;1.75;1.33;;;3.60;93.20;;;;;;5023210;28;20037;-67
2023/01/17 02:55:49;;;;;;;2.45;0.80;;;3.60;93.20;;;;;;5026895;28;20029;-68
2023/01/17 02:58:38;;;;;;;1.23;1.00;;;3.60;93.20;;;;;;5024742;28;20076;-66
2023/01/17 03:01:40;;;;;;;1.58;1.10;;;3.60;93.30;;;;;;5025431;28;20627;-66
2023/01/17 03:04:13;;;;;;;1.27;1.17;;;3.70;93.20;;;;;;5028477;28;20033;-67
2023/01/17 03:06:50;;;;;;;3.10;0.80;;;3.70;93.20;;;;;;5025664;28;20508;-66
2023/01/17 03:09:17;;;;;;;1.10;0.88;;;3.60;93.10;;;;;;5028666;28;20025;-66
2023/01/17 03:11:43;;;;;;;1.90;0.90;;;3.60;93.10;;;;;;5027353;28;20033;-66
2023/01/17 03:14:08;;;;;;;2.05;0.90;;;3.60;93.20;;;;;;5036269;28;20025;-66
2023/01/17 03:16:34;;;;;;;0.75;0.75;;;3.60;93.20;;;;;;5027405;28;20032;-66
2023/01/17 03:19:00;;;;;;;1.67;0.90;;;3.60;93.20;;;;;;5026500;28;20072;-67
2023/01/17 03:21:26;;;;;;;0.88;0.80;;;3.60;93.10;;;;;;5020996;28;20124;-66
2023/01/17 03:23:51;;;;;;;0.60;0.60;;;3.60;93.20;;;;;;5026853;28;20021;-67
2023/01/17 03:26:17;;;;;;;0.82;0.68;;;3.50;93.20;;;;;;5028072;28;20029;-65
2023/01/17 03:28:42;;;;;;;0.80;0.80;;;3.50;93.20;;;;;;5025637;28;20037;-67
2023/01/17 03:31:08;;;;;;;0.75;0.60;;;3.60;93.30;;;;;;5026709;28;20021;-67
2023/01/17 03:33:34;;;;;;;0.68;0.68;;;3.60;93.30;;;;;;5027110;28;20030;-69
2023/01/17 03:35:59;;;;;;;1.38;0.70;;;3.60;93.20;;;;;;5024016;28;20029;-67
2023/01/17 03:38:26;;;;;;;2.03;0.77;;;3.60;93.20;;;;;;5030020;28;20041;-67
2023/01/17 03:40:52;;;;;;;1.38;0.93;;;3.60;93.20;;;;;;5032320;28;20029;-69
2023/01/17 03:43:18;;;;;;;0.68;0.68;;;3.60;93.20;;;;;;5029795;28;20088;-67
2023/01/17 03:45:47;;;;;;;0.55;0.55;;;3.60;93.20;;;;;;5030503;28;20503;-70
2023/01/17 03:48:13;;;;;;;2.15;0.82;;;3.60;93.10;;;;;;5032818;28;20450;-68
2023/01/17 03:50:38;;;;;;;2.08;0.75;;;3.60;93.10;;;;;;5032058;28;20100;-69
2023/01/17 03:53:04;;;;;;;0.80;0.80;;;3.50;93.10;;;;;;5032259;28;20033;-66
2023/01/17 03:55:29;;;;;;;3.10;0.68;;;3.50;93.10;;;;;;5030144;28;20030;-66
2023/01/17 03:57:55;;;;;;;0.85;0.70;;;3.50;93.10;;;;;;5030484;28;20026;-67
2023/01/17 04:00:21;;;;;;;1.02;0.85;;;3.50;93.10;;;;;;5031922;28;20494;-68
2023/01/17 04:02:47;;;;;;;1.33;0.85;;;3.50;93.40;;;;;;5030521;28;20535;-68
2023/01/17 04:05:12;;;;;;;1.60;0.70;;;3.40;93.10;;;;;;5031164;28;20053;-67
2023/01/17 04:07:38;;;;;;;0.63;0.60;;;3.40;93.10;;;;;;5029965;28;20048;-66
2023/01/17 04:10:05;;;;;;;0.70;0.70;;;3.40;93.10;;;;;;5025082;28;20037;-66
2023/01/17 04:12:30;;;;;;;1.15;0.68;;;3.40;93.10;;;;;;5031375;28;20032;-67
2023/01/17 04:14:56;;;;;;;2.70;0.60;;;3.40;93.20;;;;;;5030768;28;20037;-67
2023/01/17 04:17:21;;;;;;;1.15;0.75;;;3.30;93.20;;;;;;5030096;28;20843;-67
2023/01/17 04:19:47;;;;;;;0.63;0.63;;;3.40;93.20;;;;;;5031197;28;20022;-67
2023/01/17 04:22:13;;;;;;;2.40;0.70;;;3.40;93.20;;;;;;5031129;28;20032;-67
2023/01/17 04:24:38;;;;;;;1.15;0.70;;;3.30;93.20;;;;;;5031569;28;20428;-67
2023/01/17 04:27:04;;;;;;;3.22;0.70;;;3.40;93.20;;;;;;5027046;28;20037;-67
2023/01/17 04:29:30;;;;;;;1.10;0.70;;;3.40;93.30;;;;;;5029809;28;20048;-67
2023/01/17 04:31:56;;;;;;;2.55;0.90;;;3.40;93.20;;;;;;5029283;28;20041;-67
2023/01/17 04:34:21;;;;;;;1.20;0.70;;;3.30;93.20;;;;;;5031244;28;20029;-66
2023/01/17 04:36:47;;;;;;;1.30;1.10;;;3.40;93.30;;;;;;5030503;28;20025;-66
2023/01/17 04:39:12;;;;;;;1.15;0.82;;;3.40;93.20;;;;;;5028501;28;20031;-66
2023/01/17 04:41:38;;;;;;;0.80;0.73;;;3.40;93.20;;;;;;5030545;28;20044;-66
2023/01/17 04:44:04;;;;;;;1.75;0.70;;;3.40;93.20;;;;;;5028467;28;20013;-66
2023/01/17 04:46:30;;;;;;;1.35;0.90;;;3.30;93.20;;;;;;5030583;28;20017;-66
2023/01/17 04:48:55;;;;;;;2.92;0.90;;;3.30;93.20;;;;;;5026807;28;20025;-67
2023/01/17 04:51:21;;;;;;;1.67;0.95;;;3.30;93.10;;;;;;5029357;28;20039;-67
2023/01/17 04:53:46;;;;;;;1.30;1.10;;;3.20;93.10;;;;;;5029736;28;20021;-66
2023/01/17 04:56:12;;;;;;;4.05;1.42;;;3.20;93.10;;;;;;5030103;28;20037;-67
2023/01/17 04:58:38;;;;;;;1.77;1.05;;;3.20;93.20;;;;;;5028010;28;20053;-66
2023/01/17 05:01:05;;;;;;;2.17;1.17;;;3.20;93.20;;;;;;5026630;28;20029;-67
2023/01/17 05:03:31;;;;;;;3.17;1.10;;;3.10;93.20;;;;;;5029025;28;20021;-65
2023/01/17 05:05:57;;;;;;;1.48;1.13;;;3.10;93.20;;;;;;5026524;28;20109;-67
2023/01/17 05:08:23;;;;;;;2.80;1.20;;;3.20;93.30;;;;;;5030050;28;20380;-67
2023/01/17 05:10:48;;;;;;;2.35;1.10;;;3.20;93.20;;;;;;5027341;28;20072;-67
2023/01/17 05:13:14;;;;;;;2.08;1.20;;;3.20;93.20;;;;;;5027463;28;20018;-67
2023/01/17 05:15:40;;;;;;;2.13;1.20;;;3.20;93.20;;;;;;5028353;28;21285;-66
2023/01/17 05:18:07;;;;;;;1.67;1.10;;;3.20;93.20;;;;;;5023997;28;20030;-67
2023/01/17 05:20:34;;;;;;;1.92;1.45;;;3.20;93.20;;;;;;5028980;28;20044;-67
2023/01/17 05:22:59;;;;;;;6.22;1.67;;;3.10;93.10;;;;;;5026359;28;20763;-65
2023/01/17 05:25:29;;;;;;;1.88;1.40;;;3.10;93.20;;;;;;5028709;28;20112;-67
2023/01/17 05:27:55;;;;;;;1.92;1.52;;;3.10;93.50;;;;;;5028239;28;20435;-68
2023/01/17 05:30:21;;;;;;;2.03;1.60;;;3.10;93.20;;;;;;5029372;28;20365;-66
2023/01/17 05:32:52;;;;;;;4.72;1.85;;;3.10;93.20;;;;;;5028136;28;20491;-67
2023/01/17 05:35:21;;;;;;;3.63;2.00;;;3.20;93.20;;;;;;5029362;28;20039;-67
2023/01/17 05:37:48;;;;;;;4.97;1.90;;;3.20;93.20;;;;;;5029783;28;20033;-67
2023/01/17 05:40:17;;;;;;;1.50;1.40;;;3.20;93.20;;;;;;5027922;28;20112;-67
2023/01/17 05:42:46;;;;;;;4.72;2.33;;;3.20;93.10;;;;;;5029444;28;20104;-68
2023/01/17 05:45:15;;;;;;;7.28;2.05;;;3.20;93.10;;;;;;5027398;28;20026;-68
2023/01/17 05:47:42;;;;;;;5.57;2.00;;;3.20;93.10;;;;;;5024584;28;20063;-68
2023/01/17 05:50:09;;;;;;;3.72;1.60;;;3.20;93.10;;;;;;5027339;28;20545;-68
2023/01/17 05:52:34;;;;;;;3.25;1.98;;;3.20;93.10;;;;;;5028204;28;20484;-68
2023/01/17 05:55:00;;;;;;;2.78;1.70;;;3.20;93.10;;;;;;5029228;28;20071;-68
2023/01/17 05:57:25;;;;;;;2.80;1.75;;;3.20;93.00;;;;;;5029580;28;20025;-67
2023/01/17 05:59:51;;;;;;;2.30;1.40;;;3.20;93.00;;;;;;5028978;28;20082;-67
2023/01/17 06:02:16;;;;;;;3.47;1.70;;;3.20;93.00;;;;;;5028182;28;20041;-67
2023/01/17 06:04:42;;;;;;;5.22;1.85;;;3.20;93.00;;;;;;5029763;28;20060;-67
2023/01/17 06:07:07;;;;;;;2.50;1.48;;;3.30;93.00;;;;;;5027895;28;20187;-68
2023/01/17 06:09:33;;;;;;;5.65;1.92;;;3.20;92.90;;;;;;5025753;28;20053;-67
2023/01/17 06:11:58;;;;;;;7.57;1.60;;;3.20;93.00;;;;;;5027310;28;20026;-67
2023/01/17 06:14:24;;;;;;;4.05;1.75;;;3.20;93.00;;;;;;5028997;28;20029;-68
2023/01/17 06:16:49;;;;;;;3.58;1.50;;;3.20;93.00;;;;;;5029103;28;20079;-68
2023/01/17 06:19:15;;;;;;;5.15;1.48;;;3.20;93.00;;;;;;5028031;28;20026;-68
2023/01/17 06:21:40;;;;;;;2.35;1.70;;;3.20;93.00;;;;;;5029625;28;20079;-67
2023/01/17 06:24:06;;;;;;;2.60;1.50;;;3.10;93.00;;;;;;5028946;28;20022;-67
2023/01/17 06:26:32;;;;;;;2.42;1.42;;;3.10;93.00;;;;;;5027411;28;20128;-67
2023/01/17 06:28:57;;;;;;;1.52;1.20;;;3.10;93.00;;;;;;5024589;28;20040;-68
2023/01/17 06:31:23;;;;;;;3.30;1.48;;;3.10;93.10;;;;;;5019957;28;20031;-68
2023/01/17 06:33:48;;;;;;;3.13;1.00;;;3.10;93.00;;;;;;5022390;28;20029;-68
2023/01/17 06:36:14;;;;;;;4.32;1.30;;;3.00;93.00;;;;;;5027945;28;20105;-68
2023/01/17 06:38:39;;;;;;;2.90;1.30;;;3.00;93.00;;;;;;5028989;28;20083;-68
2023/01/17 06:41:05;;;;;;;2.22;1.42;;;3.00;93.10;;;;;;5028168;28;20025;-67
2023/01/17 06:43:32;;;;;;;2.60;1.48;;;3.00;93.10;;;;;;5028606;28;20032;-67
2023/01/17 06:45:59;;;;;;;2.20;1.15;;;3.00;93.10;;;;;;5028348;28;20413;-67
2023/01/17 06:48:24;;;;;;;4.13;1.50;;;3.00;93.10;;;;;;5026476;28;20021;-67
2023/01/17 06:50:50;;;;;;;2.35;1.30;;;3.00;93.10;;;;;;5027421;28;20538;-67
2023/01/17 06:53:16;;;;;;;4.55;1.92;;;3.00;93.10;;;;;;5024301;28;20034;-68
2023/01/17 06:55:42;;;;;;;3.20;1.60;;;3.00;93.10;;;;;;5029266;28;20109;-67
2023/01/17 06:58:08;;;;;;;2.67;1.63;;;3.00;93.10;;;;;;5027583;28;20087;-68
2023/01/17 07:00:34;;;;;;;2.28;1.50;;;2.90;93.10;;;;;;5028885;28;20392;-67
2023/01/17 07:03:00;;;;;;;5.05;1.83;;;2.90;93.10;;;;;;5029110;28;20026;-68
2023/01/17 07:05:27;;;;;;;3.53;1.30;;;2.90;93.10;;;;;;5024556;28;20034;-68
2023/01/17 07:07:53;;;;;;;2.40;1.50;;;2.90;93.20;;;;;;5028892;28;20392;-68
2023/01/17 07:10:19;;;;;;;4.43;1.75;;;2.90;93.20;;;;;;5028572;28;20036;-68
2023/01/17 07:12:45;;;;;;;2.40;1.50;;;2.90;93.10;;;;;;5022437;28;20064;-68
2023/01/17 07:15:11;;;;;;;2.65;1.60;;;2.90;93.10;;;;;;5032022;28;20029;-68
2023/01/17 07:17:37;;;;;;;3.65;1.58;;;2.90;93.10;;;;;;5031787;28;20053;-68
2023/01/17 07:20:03;;;;;;;2.17;1.17;;;2.90;93.10;;;;;;5033181;28;20064;-68
2023/01/17 07:22:29;;;;;;;2.80;1.55;;;2.90;93.20;;;;;;5032236;28;20064;-67
2023/01/17 07:24:57;;;;;;;1.73;1.30;;;3.00;93.20;;;;;;5028219;28;20040;-68
2023/01/17 07:27:24;;;;;;;4.18;1.60;;;3.00;93.20;;;;;;5032078;28;20032;-67
2023/01/17 07:29:50;;;;;;;6.20;1.90;;;3.00;93.20;;;;;;5030381;28;20029;-67
2023/01/17 07:32:16;;;;;;;3.15;1.70;;;3.00;93.20;;;;;;5028604;28;20106;-67
2023/01/17 07:34:41;;;;;;;3.30;1.63;;;3.00;93.20;;;;;;5030744;28;20484;-67
2023/01/17 07:37:07;;;;;;;2.13;1.45;;;3.00;93.20;;;;;;5032751;28;20124;-68
2023/01/17 07:39:33;;;;;;;2.38;1.50;;;3.10;93.20;;;;;;5032844;28;20088;-67
2023/01/17 07:41:58;;;;;;;6.10;1.98;;;3.10;93.20;;;;;;5032105;28;20388;-67
2023/01/17 07:44:24;;;;;;;5.93;2.00;;;3.20;93.20;;;;;;5032308;28;20502;-67
2023/01/17 07:46:50;;;;;;;2.55;1.63;;;3.20;93.10;;;;;;5031059;28;20021;-67
2023/01/17 07:49:15;;;;;;;8.65;1.92;;;3.20;93.10;;;;;;5031972;28;20035;-67
2023/01/17 07:51:41;;;;;;;2.20;1.70;;;3.20;93.00;;;;;;5031798;28;20056;-67
2023/01/17 07:54:06;;;;;;;3.65;2.00;;;3.20;93.00;;;;;;5029971;28;20480;-68
2023/01/17 07:56:35;;;;;;;4.25;2.17;;;3.30;93.00;;;;;;5028474;28;20079;-67
2023/01/17 07:59:00;;;;;;;3.92;1.90;;;3.30;92.90;;;;;;5024198;28;20033;-67
2023/01/17 08:01:26;;;;;;;5.72;2.20;;;3.20;92.90;;;;;;5027165;28;20017;-68
2023/01/17 08:03:53;;;;;;;6.55;2.58;;;3.20;92.90;;;;;;5031016;28;20079;-68
2023/01/17 08:06:22;;;;;;;5.70;2.15;;;3.10;92.90;;;;;;5029959;28;20045;-68
2023/01/17 08:08:48;;;;;;;5.43;2.80;;;3.10;93.00;;;;;;5025640;28;20037;-68
2023/01/17 08:11:14;;;;;;;6.78;2.38;;;3.20;93.00;;;;;;5030474;28;20029;-68
2023/01/17 08:13:40;;;;;;;7.90;3.00;;;3.10;93.20;;;;;;5030372;28;20060;-68
2023/01/17 08:16:08;;;;;;;8.23;3.00;;;3.10;92.90;;;;;;5028917;28;20499;-67
2023/01/17 08:18:33;;;;;;;6.35;2.75;;;3.10;93.00;;;;;;5030315;28;20022;-68
2023/01/17 08:20:59;;;;;;;7.43;3.58;;;3.00;92.90;;;;;;5031339;28;20036;-67
2023/01/17 08:23:25;;;;;;;4.43;2.92;;;3.00;92.90;;;;;;5028650;28;20112;-67
2023/01/17 08:25:50;;;;;;;3.50;2.22;;;3.00;92.90;;;;;;5032221;28;20059;-67
2023/01/17 08:28:18;;;;;;;9.95;3.50;;;3.00;92.90;;;;;;5031475;28;20442;-68
2023/01/17 08:30:44;;;;;;;7.13;3.28;;;3.00;92.90;;;;;;5025693;28;20026;-67
2023/01/17 08:33:10;;;;;;;4.60;2.70;;;3.00;92.90;;;;;;5028394;28;20021;-67
2023/01/17 08:35:35;;;;;;;5.90;2.88;;;3.00;92.90;;;;;;5029053;28;20037;-66
2023/01/17 08:38:03;;;;;;;3.55;2.03;;;3.10;92.90;;;;;;5029936;28;20143;-66
2023/01/17 08:40:31;;;;;;;5.47;2.50;;;3.10;92.80;;;;;;5026898;28;20018;-66
2023/01/17 08:42:58;;;;;;;5.85;3.08;;;3.10;92.80;;;;;;5026867;28;20033;-66
2023/01/17 08:45:25;;;;;;;5.55;2.95;;;3.10;92.80;;;;;;5030657;28;20075;-66
2023/01/17 08:47:51;;;;;;;7.43;3.08;;;3.20;92.90;;;;;;5030372;28;20068;-66
2023/01/17 08:50:20;;;;;;;7.30;4.18;;;3.20;92.80;;;;;;5028822;28;20100;-66
2023/01/17 08:52:47;;;;;;;9.13;3.90;;;3.20;92.80;;;;;;5023328;28;20044;-66
2023/01/17 08:55:13;;;;;;;7.07;4.10;;;3.20;92.80;;;;;;5030631;28;20104;-66
2023/01/17 08:57:38;;;;;;;9.65;4.90;;;3.20;92.80;;;;;;5027302;28;20136;-66
2023/01/17 09:00:06;;;;;;;10.40;4.60;;;3.20;92.70;;;;;;5029195;28;20018;-66
2023/01/17 09:02:32;;;;;;;12.77;5.07;;;3.20;92.70;;;;;;5032128;28;20092;-66
2023/01/17 09:05:00;;;;;;;7.03;3.28;;;3.20;92.70;;;;;;5029697;28;20025;-66
2023/01/17 09:07:27;;;;;;;11.45;5.55;;;3.20;92.70;;;;;;5030100;28;20415;-66
2023/01/17 09:09:53;;;;;;;9.40;5.07;;;3.20;92.60;;;;;;5021963;28;20033;-66
2023/01/17 09:12:21;;;;;;;11.35;6.15;;;3.20;92.70;;;;;;5027354;28;20456;-66
2023/01/17 09:14:47;;;;;;;13.25;5.90;;;3.20;92.70;;;;;;5029618;28;20060;-66
2023/01/17 09:17:13;;;;;;;15.02;6.38;;;3.30;92.70;;;;;;5028360;28;20079;-66
2023/01/17 09:19:42;;;;;;;13.63;6.63;;;3.30;92.60;;;;;;5030432;28;20014;-66
2023/01/17 09:22:09;;;;;;;8.35;4.35;;;3.30;92.60;;;;;;5029998;28;20117;-66
2023/01/17 09:24:34;;;;;;;14.13;6.95;;;3.30;92.60;;;;;;5031037;28;20131;-66
2023/01/17 09:27:00;;;;;;;16.75;7.90;;;3.30;92.70;;;;;;5030027;28;20422;-66
2023/01/17 09:29:26;;;;;;;13.02;5.68;;;3.30;92.60;;;;;;5029449;28;20487;-66
2023/01/17 09:31:51;;;;;;;15.32;7.18;;;3.30;92.60;;;;;;5028500;28;20120;-66
2023/01/17 09:34:17;;;;;;;14.90;7.55;;;3.30;92.60;;;;;;5030986;28;20097;-66
2023/01/17 09:36:43;;;;;;;11.55;5.65;;;3.30;92.60;;;;;;5025913;28;20400;-66
2023/01/17 09:39:10;;;;;;;15.35;7.20;;;3.30;92.60;;;;;;5028349;28;20024;-66
2023/01/17 09:41:46;;;;;;;12.00;6.72;;;3.30;92.50;;;;;;5029870;28;20043;-66
2023/01/17 09:44:21;;;;;;;14.57;6.25;;;3.40;92.50;;;;;;5026258;28;20024;-65
2023/01/17 09:46:48;;;;;;;11.10;5.20;;;3.40;92.50;;;;;;5028074;28;20083;-66
2023/01/17 09:49:28;;;;;;;12.07;5.78;;;3.40;92.50;;;;;;5025705;28;20143;-66
2023/01/17 09:51:53;;;;;;;12.23;6.90;;;3.50;92.50;;;;;;5026279;28;20125;-66
2023/01/17 09:54:22;;;;;;;15.07;6.90;;;3.50;92.40;;;;;;5028316;28;20104;-66
2023/01/17 09:57:16;;;;;;;14.55;6.38;;;3.50;92.40;;;;;;5025482;28;20385;-66
2023/01/17 10:00:02;;;;;;;14.65;5.38;;;3.50;92.40;;;;;;5027974;28;20065;-66
2023/01/17 10:03:02;;;;;;;17.73;6.10;;;3.60;92.40;;;;;;5026483;28;20112;-66
2023/01/17 10:05:47;;;;;;;8.48;4.30;;;3.50;92.30;;;;;;5020899;28;20063;-66
2023/01/17 10:08:34;;;;;;;11.93;5.50;;;3.50;92.20;;;;;;5027320;28;20041;-66
2023/01/17 10:11:16;;;;;;;8.57;4.80;;;3.50;92.20;;;;;;5039608;28;20088;-66
2023/01/17 10:14:02;;;;;;;16.45;6.03;;;3.60;92.20;;;;;;5027456;28;20025;-66
2023/01/17 10:16:59;;;;;;;8.18;4.60;;;3.60;92.20;;;;;;5026131;28;20033;-66
2023/01/17 10:19:46;;;;;;;12.60;5.25;;;3.60;92.20;;;;;;5025598;28;20563;-66
2023/01/17 10:22:23;;;;;;;12.07;5.57;;;3.60;92.20;;;;;;5025685;28;20635;-66
2023/01/17 10:25:07;;;;;;;9.98;4.55;;;3.70;92.20;;;;;;5028900;28;20025;-66
2023/01/17 10:27:38;;;;;;;9.75;5.10;;;3.70;92.20;;;;;;5029291;28;20488;-66
2023/01/17 10:30:19;;;;;;;10.63;5.07;;;3.70;92.10;;;;;;5027710;28;20013;-66
2023/01/17 10:32:48;;;;;;;9.57;4.68;;;3.70;92.10;;;;;;5028100;28;20064;-66
2023/01/17 10:35:21;;;;;;;9.18;4.90;;;3.70;92.10;;;;;;5028324;28;20026;-66
2023/01/17 10:37:49;;;;;;;7.90;3.85;;;3.80;92.10;;;;;;5028865;28;20390;-66
2023/01/17 10:40:33;;;;;;;9.07;4.90;;;3.80;92.00;;;;;;5023378;28;20067;-66
2023/01/17 10:43:09;;;;;;;9.73;4.60;;;3.90;92.10;;;;;;5024850;28;20029;-66
2023/01/17 10:45:47;;;;;;;7.47;4.40;;;3.90;92.10;;;;;;5020901;28;20026;-66
2023/01/17 10:48:42;;;;;;;9.43;4.97;;;4.00;92.10;;;;;;5026216;28;20116;-66
2023/01/17 10:51:19;;;;;;;7.35;4.70;;;3.90;92.00;;;;;;5026315;28;20037;-66
2023/01/17 10:54:17;;;;;;;9.45;4.65;;;3.90;91.90;;;;;;5043224;28;20133;-66
2023/01/17 10:56:42;;;;;;;8.57;4.28;;;4.00;92.00;;;;;;5023943;28;20037;-66
2023/01/17 10:59:26;;;;;;;7.30;3.78;;;4.10;91.90;;;;;;5021956;28;20484;-66
2023/01/17 11:01:52;;;;;;;6.57;3.70;;;4.10;91.90;;;;;;5027694;28;20034;-65
2023/01/17 11:04:35;;;;;;;10.32;3.97;;;4.10;91.90;;;;;;5028693;28;20140;-66
2023/01/17 11:07:12;;;;;;;8.05;4.22;;;4.20;91.90;;;;;;5028059;28;20112;-66
2023/01/17 11:09:48;;;;;;;7.70;3.92;;;4.20;91.90;;;;;;5020832;28;20388;-66
2023/01/17 11:12:37;;;;;;;6.13;3.90;;;4.30;91.90;;;;;;5029554;28;20025;-66
2023/01/17 11:15:08;;;;;;;8.88;3.90;;;4.30;91.80;;;;;;5022379;28;20029;-66
2023/01/17 11:17:51;;;;;;;6.40;3.60;;;4.30;91.80;;;;;;5028196;28;20112;-66
2023/01/17 11:20:27;;;;;;;9.27;3.58;;;4.30;91.80;;;;;;5026604;28;20025;-66
2023/01/17 11:23:14;;;;;;;5.70;3.72;;;4.40;91.80;;;;;;5027944;28;20029;-66
2023/01/17 11:25:51;;;;;;;9.52;4.25;;;4.40;91.80;;;;;;5025687;28;20033;-66
2023/01/17 11:28:22;;;;;;;8.30;4.00;;;4.40;91.70;;;;;;5027931;28;20032;-66
2023/01/17 11:31:02;;;;;;;5.43;3.30;;;4.30;91.70;;;;;;5023437;28;20302;-66
2023/01/17 11:34:35;;;;;;;5.20;3.30;;;4.40;91.70;;;;;;5026358;28;20021;-66
2023/01/17 11:37:18;;;;;;;7.25;3.75;;;4.50;91.80;;;;;;4961945;28;20046;-66
2023/01/17 11:39:46;;;;;;;7.50;3.40;;;4.50;91.70;;;;;;5021752;28;20042;-66
2023/01/17 11:42:33;;;;;;;9.63;2.63;;;4.50;91.60;;;;;;5027938;28;20022;-66
2023/01/17 11:45:25;;;;;;;4.85;2.83;;;4.60;91.60;;;;;;5026991;28;20044;-66
2023/01/17 11:48:08;;;;;;;5.50;3.70;;;4.60;91.50;;;;;;5023618;28;20121;-66
2023/01/17 11:50:37;;;;;;;;;;;4.70;91.50;;;;;;5028770;28;20279;-66
2023/01/17 11:53:28;;;;;;;5.32;2.83;;;4.70;91.40;;;;;;5024379;28;19909;-66
2023/01/17 11:56:01;;;;;;;5.90;2.83;;;4.80;91.40;;;;;;5026760;28;20059;-66
2023/01/17 11:58:27;;;;;;;5.45;3.00;;;4.80;91.40;;;;;;5026307;28;20030;-65
2023/01/17 12:01:19;;;;;;;4.53;2.20;;;4.90;91.40;;;;;;5037581;28;20060;-66
2023/01/17 12:04:10;;;;;;;3.83;2.10;;;4.90;91.30;;;;;;5031244;28;20078;-66
2023/01/17 12:06:48;;;;;;;6.15;2.83;;;5.00;91.30;;;;;;5032805;28;20514;-66
2023/01/17 12:09:26;;;;;;;5.43;3.33;;;5.10;91.20;;;;;;5031419;28;20472;-65
2023/01/17 12:15:03;;;;;;;4.70;2.63;;;5.10;91.00;;;;;;5030253;28;20084;-65
2023/01/17 12:18:18;;;;;;;4.00;2.13;;;5.10;91.00;;;;;;5024560;28;20025;-66
2023/01/17 12:20:46;;;;;;;5.13;2.67;;;5.10;91.10;;;;;;5028519;28;20033;-66
2023/01/17 12:23:36;;;;;;;3.67;2.60;;;5.50;91.70;;;;;;5032363;28;20021;-66
2023/01/17 12:26:26;;;;;;;2.45;1.60;;;7.00;90.20;;;;;;5031700;28;20029;-66
2023/01/17 12:29:16;;;;;;;3.08;1.73;;;7.30;85.90;;;;;;5030405;28;20517;-66
2023/01/17 12:32:19;;;;;;;4.88;2.53;;;6.80;85.70;;;;;;5026930;28;20443;-66
2023/01/17 12:35:10;;;;;;;5.30;2.67;;;6.30;86.40;;;;;;5023452;28;20428;-66
2023/01/17 12:37:40;;;;;;;5.32;2.50;;;6.10;88.30;;;;;;5024420;28;20037;-65
2023/01/17 12:40:24;;;;;;;5.20;2.47;;;7.00;90.00;;;;;;5044126;28;20472;-66
2023/01/17 12:43:00;;;;;;;3.60;2.42;;;8.90;86.20;;;;;;5030190;28;20030;-66
2023/01/17 12:45:40;;;;;;;4.13;2.08;;;10.20;81.30;;;;;;5029214;28;20029;-66
2023/01/17 12:48:11;;;;;;;5.35;2.60;;;11.00;78.20;;;;;;5021875;28;20026;-66
2023/01/17 12:51:01;;;;;;;3.35;2.10;;;11.60;76.50;;;;;;5027045;28;20029;-66
2023/01/17 12:53:55;;;;;;;3.60;2.20;;;12.00;75.60;;;;;;5027386;28;20484;-66
2023/01/17 12:56:22;;;;;;;4.05;2.25;;;12.40;75.00;;;;;;5029241;28;20029;-66
2023/01/17 12:58:54;;;;;;;3.72;2.13;;;12.80;74.40;;;;;;5029666;28;20034;-66
2023/01/17 13:01:31;;;;;;;6.13;2.55;;;12.90;73.50;;;;;;5029081;28;20018;-66
2023/01/17 13:04:24;;;;;;;5.05;2.33;;;13.00;72.60;;;;;;5026210;28;20536;-66
2023/01/17 13:07:01;;;;;;;2.95;1.60;;;13.20;72.30;;;;;;5024955;28;20510;-66
2023/01/17 13:09:42;;;;;;;4.00;2.10;;;13.50;72.00;;;;;;5028665;28;20036;-66
2023/01/17 13:12:14;;;;;;;2.80;1.90;;;13.20;71.20;;;;;;5024059;28;20030;-66
2023/01/17 13:14:40;;;;;;;3.67;1.92;;;13.30;71.50;;;;;;5026955;28;20056;-66
2023/01/17 13:17:43;;;;;;;2.35;1.77;;;13.20;71.00;;;;;;5023123;28;20118;-67
2023/01/17 13:20:27;;;;;;;2.22;1.77;;;13.30;70.90;;;;;;5024629;28;20020;-66
2023/01/17 13:22:56;;;;;;;3.63;2.30;;;13.20;70.20;;;;;;5025963;28;20017;-66
2023/01/17 13:25:25;;;;;;;4.18;2.10;;;13.10;69.50;;;;;;5027973;28;20055;-66
2023/01/17 13:28:14;;;;;;;4.50;2.10;;;12.90;69.80;;;;;;5029082;28;20029;-66
2023/01/17 13:30:55;;;;;;;3.88;2.30;;;12.70;69.10;;;;;;5027354;28;20037;-66
2023/01/17 13:33:30;;;;;;;2.97;1.83;;;12.60;69.50;;;;;;5028299;28;20033;-66
2023/01/17 13:36:27;;;;;;;3.85;2.13;;;12.40;69.60;;;;;;5027619;28;20038;-66
2023/01/17 13:38:56;;;;;;;5.65;2.25;;;12.50;69.70;;;;;;5025451;28;20030;-66
2023/01/17 13:41:43;;;;;;;5.15;2.05;;;12.50;69.60;;;;;;5021625;28;20689;-66
2023/01/17 13:44:20;;;;;;;2.33;1.50;;;12.40;69.70;;;;;;5017761;28;20041;-66
2023/01/17 13:46:59;;;;;;;3.83;1.88;;;12.20;69.60;;;;;;5020752;28;20136;-66
2023/01/17 13:49:28;;;;;;;3.50;1.80;;;11.90;69.80;;;;;;5016492;28;20053;-66
2023/01/17 13:52:17;;;;;;;2.83;2.10;;;11.50;70.10;;;;;;5017956;28;20485;-66
2023/01/17 13:54:55;;;;;;;2.58;1.90;;;11.30;70.20;;;;;;5020279;28;20029;-66
2023/01/17 13:59:54;;;;;;;2.40;1.75;;;11.00;71.10;;;;;;5023750;28;20029;-66
2023/01/17 14:02:31;;;;;;;4.47;2.03;;;10.60;71.70;;;;;;5028148;28;20549;-66
2023/01/17 14:05:22;;;;;;;2.63;1.58;;;9.60;73.20;;;;;;5027412;28;20041;-66
2023/01/17 14:08:04;;;;;;;3.90;2.05;;;8.80;74.40;;;;;;5028581;28;20037;-66
2023/01/17 14:10:40;;;;;;;3.75;1.55;;;8.20;76.00;;;;;;5025135;28;20068;-66
2023/01/17 14:13:26;;;;;;;4.07;1.80;;;7.70;77.10;;;;;;5028678;28;20247;-65
2023/01/17 14:15:51;;;;;;;1.88;1.67;;;7.40;78.00;;;;;;5026688;28;20037;-66
2023/01/17 14:18:35;;;;;;;2.83;1.70;;;7.20;78.70;;;;;;5027669;28;20031;-65
2023/01/17 14:21:19;;;;;;;4.53;1.65;;;6.90;79.00;;;;;;5022823;28;20550;-65
2023/01/17 14:23:59;;;;;;;2.88;1.45;;;6.80;79.50;;;;;;5017777;28;20060;-65
2023/01/17 14:26:33;;;;;;;2.55;1.42;;;6.70;79.60;;;;;;5021418;28;20029;-65
2023/01/17 14:29:37;;;;;;;2.00;1.40;;;6.60;80.00;;;;;;5021890;28;20558;-65
2023/01/17 14:32:07;;;;;;;3.03;1.75;;;6.50;80.20;;;;;;5016262;28;20033;-65
2023/01/17 14:34:34;;;;;;;2.95;1.55;;;6.40;80.00;;;;;;5018720;28;20032;-65
2023/01/17 14:37:32;;;;;;;1.38;1.10;;;6.30;80.20;;;;;;5018097;28;20720;-65
2023/01/17 14:39:59;;;;;;;2.17;1.30;;;6.20;80.00;;;;;;5026281;28;20072;-65
2023/01/17 14:42:28;;;;;;;4.72;1.33;;;6.10;79.60;;;;;;5023591;28;20029;-67
2023/01/17 14:45:07;;;;;;;2.33;1.70;;;6.00;80.00;;;;;;5026007;28;20423;-65
2023/01/17 14:47:38;;;;;;;3.28;1.77;;;5.90;80.10;;;;;;5025871;28;20403;-65
2023/01/17 14:50:21;;;;;;;2.13;1.52;;;5.90;80.30;;;;;;5025025;28;20025;-65